Time;durP1;ratioP1;P1;durP2;ratioP2;P2;SDS_P1;SDS_P2;PMS_P1;PMS_P2;Temp;Humidity;BMP_temperature;BMP_pressure;BME280_temperature;BME280_humidity;BME280_pressure;Samples;Min_cycle;Max_cycle;Signal;HPM_P1;HPM_P2
2023/05/10 00:01:07;;;;;;;11.32;5.20;;;;;;;10.83;54.76;100906.84;5051602;28;20031;-56
2023/05/10 00:03:32;;;;;;;9.23;4.88;;;;;;;10.79;55.37;100903.47;5065222;28;20180;-56
2023/05/10 00:05:58;;;;;;;8.05;5.68;;;;;;;10.78;55.20;100904.41;5075021;28;20078;-56
2023/05/10 00:08:23;;;;;;;7.70;5.90;;;;;;;10.75;55.15;100898.38;5073785;28;20028;-56
2023/05/10 00:10:49;;;;;;;11.82;5.65;;;;;;;10.76;55.29;100900.13;5070757;28;20540;-55
2023/05/10 00:13:14;;;;;;;11.18;5.63;;;;;;;10.68;55.57;100897.81;5070575;28;20040;-56
2023/05/10 00:15:40;;;;;;;12.65;5.40;;;;;;;10.68;55.72;100892.53;5070417;28;20039;-56
2023/05/10 00:18:05;;;;;;;8.27;5.25;;;;;;;10.74;54.93;100892.25;5066888;28;20032;-57
2023/05/10 00:20:31;;;;;;;9.63;5.85;;;;;;;10.71;56.11;100887.09;5060763;28;20024;-58
2023/05/10 00:22:56;;;;;;;10.45;5.88;;;;;;;10.70;55.32;100885.38;5070160;28;20504;-57
2023/05/10 00:25:21;;;;;;;17.30;5.55;;;;;;;10.63;55.99;100889.22;5061885;28;20082;-57
2023/05/10 00:27:47;;;;;;;6.75;5.28;;;;;;;10.59;55.64;100871.75;5074854;28;20034;-56
2023/05/10 00:30:13;;;;;;;8.07;6.05;;;;;;;10.53;55.99;100877.34;5069351;28;20107;-56
2023/05/10 00:32:38;;;;;;;8.10;5.40;;;;;;;10.50;56.70;100875.69;5072138;28;20704;-56
2023/05/10 00:35:04;;;;;;;9.43;6.03;;;;;;;10.55;56.07;100881.63;5068892;28;20028;-56
2023/05/10 00:37:30;;;;;;;9.05;6.03;;;;;;;10.51;56.76;100876.53;5068455;28;20065;-56
2023/05/10 00:39:55;;;;;;;6.70;4.93;;;;;;;10.57;56.66;100868.34;5062724;28;20059;-56
2023/05/10 00:42:20;;;;;;;8.75;5.55;;;;;;;10.53;56.82;100872.06;5063512;28;20071;-57
2023/05/10 00:44:46;;;;;;;12.35;5.57;;;;;;;10.55;55.98;100870.19;5071478;28;20046;-55
2023/05/10 00:47:12;;;;;;;8.50;5.07;;;;;;;10.41;56.72;100869.00;5068417;28;20033;-55
2023/05/10 00:49:37;;;;;;;11.65;4.93;;;;;;;10.38;56.66;100869.16;5071854;28;20027;-55
2023/05/10 00:52:03;;;;;;;9.38;4.90;;;;;;;10.35;57.22;100864.00;5064864;28;20515;-55
2023/05/10 00:54:29;;;;;;;13.02;6.40;;;;;;;10.24;57.87;100866.19;5069008;28;20384;-56
2023/05/10 00:56:56;;;;;;;7.90;5.72;;;;;;;10.23;57.41;100856.53;5066154;28;20108;-55
2023/05/10 00:59:22;;;;;;;8.43;5.78;;;;;;;10.41;56.55;100869.00;5073561;28;20103;-56
2023/05/10 01:01:47;;;;;;;12.50;5.88;;;;;;;10.27;57.28;100860.78;5068288;28;20111;-55
2023/05/10 01:04:13;;;;;;;6.53;5.20;;;;;;;10.24;57.25;100852.97;5054713;28;20025;-56
2023/05/10 01:06:42;;;;;;;9.57;5.28;;;;;;;10.17;58.30;100859.44;5065981;28;20067;-55
2023/05/10 01:09:08;;;;;;;10.55;5.75;;;;;;;10.14;57.67;100854.31;5057386;28;20037;-57
2023/05/10 01:11:38;;;;;;;10.70;5.63;;;;;;;10.06;57.90;100855.47;5065267;28;20433;-58
2023/05/10 01:14:04;;;;;;;7.78;5.25;;;;;;;9.96;58.20;100851.50;5063813;28;20033;-56
2023/05/10 01:16:37;;;;;;;12.73;6.00;;;;;;;9.83;58.95;100859.06;5065621;28;20039;-57
2023/05/10 01:19:07;;;;;;;10.43;5.07;;;;;;;9.82;59.07;100851.19;5053341;28;20653;-56
2023/05/10 01:22:14;;;;;;;10.07;6.13;;;;;;;9.80;59.34;100853.06;5059449;28;20083;-58
2023/05/10 01:24:56;;;;;;;8.05;5.72;;;;;;;9.75;59.50;100858.50;5055625;28;20069;-56
2023/05/10 01:27:58;;;;;;;6.75;5.28;;;;;;;9.72;59.72;100859.50;5069910;28;20043;-56
2023/05/10 01:30:58;;;;;;;10.18;5.82;;;;;;;9.65;59.51;100852.75;5058119;28;20074;-56
2023/05/10 01:33:40;;;;;;;11.48;6.28;;;;;;;9.58;60.21;100853.94;5053086;28;20040;-55
2023/05/10 01:36:25;;;;;;;11.93;6.32;;;;;;;9.55;60.60;100846.97;5070717;28;20032;-56
2023/05/10 01:38:57;;;;;;;11.65;6.30;;;;;;;9.48;60.19;100849.91;5060821;28;20025;-56
2023/05/10 01:41:28;;;;;;;8.32;6.13;;;;;;;9.44;60.72;100853.59;5061257;28;20424;-55
2023/05/10 01:44:06;;;;;;;9.32;6.22;;;;;;;9.36;60.59;100851.25;5071530;28;20024;-56
2023/05/10 01:46:40;;;;;;;10.13;6.03;;;;;;;9.45;60.32;100845.63;5073116;28;20055;-56
2023/05/10 01:49:14;;;;;;;11.82;5.90;;;;;;;9.35;60.67;100837.22;5073320;28;20053;-56
2023/05/10 01:51:44;;;;;;;9.38;5.93;;;;;;;9.28;60.83;100842.78;5059903;28;20047;-56
2023/05/10 01:54:13;;;;;;;12.60;6.37;;;;;;;9.23;61.30;100840.31;5057358;28;20111;-56
2023/05/10 01:56:40;;;;;;;11.20;7.28;;;;;;;9.23;61.37;100845.59;5064704;28;20050;-56
2023/05/10 01:59:11;;;;;;;9.98;6.20;;;;;;;9.24;61.52;100835.94;5069211;28;20024;-56
2023/05/10 02:01:38;;;;;;;11.98;6.45;;;;;;;9.18;61.24;100839.66;5069024;28;20077;-56
2023/05/10 02:04:05;;;;;;;11.45;7.03;;;;;;;9.16;60.86;100838.84;5053648;28;20044;-56
2023/05/10 02:06:32;;;;;;;11.25;6.05;;;;;;;9.09;61.77;100837.34;5070848;28;20028;-56
2023/05/10 02:09:00;;;;;;;11.48;6.03;;;;;;;9.06;61.41;100837.50;5067058;28;20041;-57
2023/05/10 02:11:27;;;;;;;14.82;6.38;;;;;;;9.02;61.45;100843.78;5060880;28;20029;-56
2023/05/10 02:13:54;;;;;;;13.40;6.47;;;;;;;9.01;61.70;100842.94;5066896;28;20028;-56
2023/05/10 02:16:24;;;;;;;9.52;6.47;;;;;;;8.95;61.91;100841.38;5063746;28;20028;-56
2023/05/10 02:18:54;;;;;;;9.70;6.47;;;;;;;8.93;62.17;100837.94;5072930;28;20433;-56
2023/05/10 02:21:21;;;;;;;7.43;6.05;;;;;;;8.92;62.35;100838.00;5067507;28;20032;-56
2023/05/10 02:23:50;;;;;;;11.50;6.88;;;;;;;8.84;62.52;100834.78;5061133;28;20063;-56
2023/05/10 02:26:17;;;;;;;12.75;6.60;;;;;;;8.86;61.98;100831.19;5063662;28;20086;-56
2023/05/10 02:28:44;;;;;;;9.55;6.07;;;;;;;8.82;62.15;100834.84;5063077;28;20039;-56
2023/05/10 02:31:10;;;;;;;10.02;7.35;;;;;;;8.79;62.74;100829.69;5057893;28;20035;-56
2023/05/10 02:33:40;;;;;;;10.02;6.68;;;;;;;8.80;62.68;100832.25;5054747;28;20511;-57
2023/05/10 02:36:07;;;;;;;9.90;7.22;;;;;;;8.67;62.82;100830.16;5059494;28;20117;-57
2023/05/10 02:38:34;;;;;;;10.30;7.07;;;;;;;8.57;63.47;100830.47;5069420;28;20162;-56
2023/05/10 02:41:01;;;;;;;16.75;7.22;;;;;;;8.55;62.97;100827.03;5068361;28;20123;-56
2023/05/10 02:43:29;;;;;;;9.43;6.38;;;;;;;8.46;63.50;100827.34;5066422;28;20032;-57
2023/05/10 02:45:55;;;;;;;11.18;6.47;;;;;;;8.59;63.33;100836.53;5056711;28;20125;-56
2023/05/10 02:48:20;;;;;;;11.48;6.60;;;;;;;8.53;63.66;100834.13;5069129;28;20066;-56
2023/05/10 02:50:51;;;;;;;12.57;7.10;;;;;;;8.54;63.41;100833.22;5063979;28;20048;-57
2023/05/10 02:53:20;;;;;;;12.20;6.70;;;;;;;8.55;63.02;100829.66;5060418;28;20028;-56
2023/05/10 02:55:50;;;;;;;10.23;7.22;;;;;;;8.52;63.69;100827.13;5061163;28;20032;-56
2023/05/10 02:58:18;;;;;;;11.23;7.15;;;;;;;8.53;63.72;100839.38;5056403;28;20034;-56
2023/05/10 03:00:43;;;;;;;11.32;7.43;;;;;;;8.52;63.51;100827.13;5072187;28;20059;-56
2023/05/10 03:03:08;;;;;;;9.95;6.78;;;;;;;8.51;63.54;100825.41;5066461;28;20441;-56
2023/05/10 03:05:34;;;;;;;12.18;6.70;;;;;;;8.58;63.04;100821.66;5065984;28;20032;-57
2023/05/10 03:08:03;;;;;;;13.50;7.07;;;;;;;8.58;63.34;100820.78;5052363;28;20033;-56
2023/05/10 03:10:30;;;;;;;10.77;7.00;;;;;;;8.60;63.04;100814.56;5068021;28;20032;-57
2023/05/10 03:13:30;;;;;;;13.45;7.20;;;;;;;8.53;63.88;100817.44;5059622;28;20043;-56
2023/05/10 03:16:32;;;;;;;9.88;6.93;;;;;;;8.48;63.67;100814.13;5053879;28;20021;-57
2023/05/10 03:19:11;;;;;;;10.95;6.57;;;;;;;8.45;63.65;100815.97;5071147;28;20209;-56
2023/05/10 03:21:41;;;;;;;10.60;7.78;;;;;;;8.43;63.93;100811.66;5062166;28;20111;-56
2023/05/10 03:24:08;;;;;;;12.13;8.00;;;;;;;8.35;64.42;100818.94;5071827;28;20056;-57
2023/05/10 03:26:35;;;;;;;12.43;8.10;;;;;;;8.32;64.44;100813.78;5070248;28;20622;-56
2023/05/10 03:29:01;;;;;;;8.90;6.72;;;;;;;8.29;64.61;100814.75;5072081;28;20035;-56
2023/05/10 03:31:27;;;;;;;11.25;7.07;;;;;;;8.30;64.40;100810.34;5062257;28;20472;-56
2023/05/10 03:33:53;;;;;;;10.25;7.13;;;;;;;8.25;64.60;100814.00;5072083;28;20044;-56
2023/05/10 03:36:19;;;;;;;10.80;6.85;;;;;;;8.24;64.24;100817.56;5070073;28;20376;-56
2023/05/10 03:38:44;;;;;;;11.57;7.43;;;;;;;8.23;64.28;100809.69;5076703;28;20143;-57
2023/05/10 03:41:10;;;;;;;15.73;7.38;;;;;;;8.14;65.39;100816.16;5064683;28;20025;-57
2023/05/10 03:43:35;;;;;;;13.90;7.72;;;;;;;8.11;65.60;100816.25;5076076;28;20020;-56
2023/05/10 03:46:05;;;;;;;10.77;7.63;;;;;;;8.10;65.25;100814.53;5070969;28;20074;-57
2023/05/10 03:48:32;;;;;;;10.25;7.03;;;;;;;8.04;65.78;100814.72;5055578;28;20126;-56
2023/05/10 03:50:57;;;;;;;15.88;7.60;;;;;;;7.96;65.96;100816.75;5070065;28;20024;-57
2023/05/10 03:53:23;;;;;;;14.55;7.70;;;;;;;7.97;65.74;100814.09;5076000;28;20032;-57
2023/05/10 03:55:48;;;;;;;12.68;7.72;;;;;;;8.15;64.94;100812.59;5075634;28;20056;-57
2023/05/10 03:58:14;;;;;;;10.60;7.55;;;;;;;8.27;64.81;100809.53;5063930;28;20477;-56
2023/05/10 04:00:45;;;;;;;13.30;7.22;;;;;;;8.22;64.94;100808.84;5075334;28;20028;-56
2023/05/10 04:03:11;;;;;;;14.05;7.78;;;;;;;8.20;64.78;100810.66;5075799;28;20025;-56
2023/05/10 04:05:36;;;;;;;14.38;7.65;;;;;;;8.23;65.13;100810.56;5075524;28;20394;-56
2023/05/10 04:08:02;;;;;;;9.80;6.75;;;;;;;8.23;64.76;100813.19;5061923;28;20441;-56
2023/05/10 04:10:27;;;;;;;10.38;7.10;;;;;;;8.33;64.66;100805.81;5074595;28;20042;-56
2023/05/10 04:12:53;;;;;;;11.57;7.38;;;;;;;8.41;64.46;100802.94;5075200;28;20535;-56
2023/05/10 04:15:19;;;;;;;11.48;6.47;;;;;;;8.45;64.56;100804.56;5074518;28;20589;-56
2023/05/10 04:17:44;;;;;;;11.07;7.68;;;;;;;8.47;64.20;100800.09;5066779;28;20095;-56
2023/05/10 04:20:10;;;;;;;9.85;7.03;;;;;;;8.59;63.62;100798.78;5075705;28;20028;-56
2023/05/10 04:22:36;;;;;;;9.52;5.75;;;;;;;8.62;63.93;100802.16;5074978;28;20103;-57
2023/05/10 04:25:01;;;;;;;12.95;7.20;;;;;;;8.60;63.91;100808.44;5064846;28;20677;-56
2023/05/10 04:27:26;;;;;;;16.98;7.05;;;;;;;8.66;63.86;100804.69;5070194;28;20405;-58
2023/05/10 04:29:52;;;;;;;15.00;6.95;;;;;;;8.68;64.04;100814.28;5074491;28;20021;-56
2023/05/10 04:32:17;;;;;;;10.25;6.93;;;;;;;8.87;62.72;100800.41;5074998;28;20028;-56
2023/05/10 04:34:43;;;;;;;16.60;7.90;;;;;;;8.96;62.43;100798.28;5059123;28;20044;-56
2023/05/10 04:37:08;;;;;;;10.98;6.82;;;;;;;8.94;62.91;100792.22;5074275;28;20047;-56
2023/05/10 04:39:35;;;;;;;9.95;6.45;;;;;;;8.93;63.19;100787.84;5075073;28;20124;-57
2023/05/10 04:42:02;;;;;;;9.88;7.07;;;;;;;9.03;62.66;100780.44;5072444;28;20028;-57
2023/05/10 04:44:28;;;;;;;12.80;5.60;;;;;;;9.13;62.05;100780.94;5060278;28;20361;-57
2023/05/10 04:46:53;;;;;;;11.25;6.70;;;;;;;9.18;62.08;100784.25;5073726;28;20044;-56
2023/05/10 04:49:19;;;;;;;12.35;6.97;;;;;;;9.25;61.77;100779.59;5074739;28;20021;-56
2023/05/10 04:51:44;;;;;;;11.60;6.57;;;;;;;9.32;61.33;100776.66;5066562;28;20037;-57
2023/05/10 04:54:10;;;;;;;8.80;6.15;;;;;;;9.37;61.15;100766.78;5065214;28;20053;-57
2023/05/10 04:56:35;;;;;;;12.48;5.93;;;;;;;9.48;60.19;100776.91;5065086;28;20021;-56
2023/05/10 04:59:01;;;;;;;11.55;6.18;;;;;;;9.57;60.19;100775.66;5068932;28;20057;-56
2023/05/10 05:01:26;;;;;;;10.93;6.00;;;;;;;9.59;60.49;100773.81;5068429;28;20464;-56
2023/05/10 05:03:52;;;;;;;9.18;6.20;;;;;;;9.65;60.41;100778.84;5070083;28;20083;-57
2023/05/10 05:06:18;;;;;;;10.27;5.55;;;;;;;9.73;59.92;100771.47;5069428;28;20036;-57
2023/05/10 05:08:43;;;;;;;11.27;6.68;;;;;;;9.80;60.18;100776.50;5065105;28;20029;-56
2023/05/10 05:11:09;;;;;;;8.88;5.85;;;;;;;9.83;59.61;100776.38;5065268;28;20032;-57
2023/05/10 05:13:34;;;;;;;13.30;6.47;;;;;;;9.87;59.91;100777.94;5054812;28;20039;-58
2023/05/10 05:16:01;;;;;;;8.80;5.78;;;;;;;9.97;59.20;100779.28;5057279;28;20028;-56
2023/05/10 05:18:26;;;;;;;6.82;4.93;;;;;;;10.02;58.85;100777.31;5069605;28;20246;-58
2023/05/10 05:20:52;;;;;;;11.70;5.25;;;;;;;10.05;58.86;100777.19;5059435;28;20344;-57
2023/05/10 05:23:18;;;;;;;14.57;6.35;;;;;;;10.16;58.87;100775.84;5074147;28;20098;-56
2023/05/10 05:25:43;;;;;;;13.52;4.82;;;;;;;10.22;58.61;100770.31;5074091;28;20036;-56
2023/05/10 05:28:09;;;;;;;9.63;4.97;;;;;;;10.31;58.36;100769.88;5064096;28;20044;-56
2023/05/10 05:30:34;;;;;;;9.02;5.10;;;;;;;10.38;58.74;100768.75;5064152;28;20028;-56
2023/05/10 05:32:59;;;;;;;10.35;5.20;;;;;;;10.43;58.11;100776.47;5074112;28;20107;-56
2023/05/10 05:35:25;;;;;;;11.38;5.38;;;;;;;10.51;57.77;100773.44;5073122;28;20020;-56
2023/05/10 05:37:50;;;;;;;9.95;5.53;;;;;;;10.57;58.09;100767.91;5066159;28;20056;-57
2023/05/10 05:40:15;;;;;;;11.90;5.65;;;;;;;10.60;57.52;100773.06;5056751;28;20021;-57
2023/05/10 05:42:41;;;;;;;8.10;5.22;;;;;;;10.61;58.27;100769.50;5065697;28;20027;-56
2023/05/10 05:45:08;;;;;;;14.75;5.32;;;;;;;10.74;57.55;100769.75;5072397;28;20044;-58
2023/05/10 05:47:34;;;;;;;8.00;4.88;;;;;;;10.80;57.42;100757.09;5067532;28;20381;-58
2023/05/10 05:49:59;;;;;;;13.50;5.20;;;;;;;10.88;57.61;100774.44;5063882;28;20064;-57
2023/05/10 05:52:24;;;;;;;7.68;3.97;;;;;;;10.97;56.73;100763.44;5073613;28;20028;-57
2023/05/10 05:54:50;;;;;;;7.97;4.50;;;;;;;11.09;57.24;100764.63;5066751;28;20332;-57
2023/05/10 05:57:15;;;;;;;11.02;5.10;;;;;;;11.17;56.31;100770.41;5067298;28;20494;-57
2023/05/10 05:59:43;;;;;;;6.18;4.82;;;;;;;11.31;55.98;100767.09;5056544;28;20033;-57
2023/05/10 06:02:09;;;;;;;7.20;3.85;;;;;;;11.43;56.03;100769.16;5068147;28;20033;-57
2023/05/10 06:04:35;;;;;;;7.00;3.92;;;;;;;11.55;54.96;100779.13;5064595;28;20028;-58
2023/05/10 06:07:00;;;;;;;6.07;4.00;;;;;;;11.67;55.18;100766.22;5072006;28;20416;-57
2023/05/10 06:09:26;;;;;;;8.18;4.72;;;;;;;11.76;54.58;100773.69;5072812;28;20093;-56
2023/05/10 06:11:51;;;;;;;9.40;4.20;;;;;;;11.84;54.27;100775.97;5072879;28;20025;-57
2023/05/10 06:14:17;;;;;;;8.80;4.35;;;;;;;11.91;53.48;100775.59;5071737;28;20076;-56
2023/05/10 06:16:42;;;;;;;5.43;3.92;;;;;;;12.04;53.08;100769.69;5072651;28;20070;-57
2023/05/10 06:19:07;;;;;;;9.07;4.95;;;;;;;12.08;53.04;100777.41;5072345;28;20411;-57
2023/05/10 06:21:33;;;;;;;9.32;4.75;;;;;;;12.17;53.01;100772.56;5070511;28;20039;-57
2023/05/10 06:23:58;;;;;;;11.50;4.57;;;;;;;12.25;52.38;100757.97;5062101;28;20335;-56
2023/05/10 06:26:23;;;;;;;8.93;4.15;;;;;;;12.36;52.12;100769.78;5078618;28;20020;-56
2023/05/10 06:28:49;;;;;;;13.88;4.15;;;;;;;12.41;52.49;100765.13;5072870;28;20103;-57
2023/05/10 06:31:14;;;;;;;7.63;3.67;;;;;;;12.53;52.12;100764.44;5069084;28;20028;-56
2023/05/10 06:33:40;;;;;;;6.53;4.07;;;;;;;12.67;52.54;100769.88;5073061;28;20063;-58
2023/05/10 06:36:05;;;;;;;6.93;4.53;;;;;;;12.67;51.91;100769.88;5072463;28;20021;-56
2023/05/10 06:38:31;;;;;;;7.57;4.15;;;;;;;12.78;51.37;100747.22;5071559;28;20089;-56
2023/05/10 06:40:57;;;;;;;6.68;4.63;;;;;;;12.81;51.51;100760.31;5059780;28;20532;-56
2023/05/10 06:43:22;;;;;;;9.70;4.72;;;;;;;12.88;51.19;100761.69;5071307;28;20053;-56
2023/05/10 06:45:48;;;;;;;7.65;4.45;;;;;;;12.94;51.04;100765.78;5071796;28;20029;-56
2023/05/10 06:48:13;;;;;;;9.02;4.10;;;;;;;13.04;51.38;100762.56;5071410;28;20077;-56
2023/05/10 06:50:39;;;;;;;12.32;4.00;;;;;;;13.13;50.93;100765.63;5075158;28;20077;-57
2023/05/10 06:53:04;;;;;;;8.20;4.15;;;;;;;13.22;50.50;100765.97;5073886;28;20102;-56
2023/05/10 06:55:29;;;;;;;7.63;4.30;;;;;;;13.33;50.02;100741.47;5073069;28;20043;-57
2023/05/10 06:57:55;;;;;;;8.93;3.88;;;;;;;13.44;50.15;100759.47;5067888;28;20029;-58
2023/05/10 07:00:20;;;;;;;6.85;3.42;;;;;;;13.69;49.79;100764.19;5069551;28;20036;-57
2023/05/10 07:02:46;;;;;;;6.72;4.05;;;;;;;13.81;49.42;100762.63;5072134;28;20128;-55
2023/05/10 07:05:12;;;;;;;5.80;3.58;;;;;;;13.97;48.64;100761.72;5072397;28;20040;-57
2023/05/10 07:07:38;;;;;;;7.80;3.65;;;;;;;14.02;48.87;100760.47;5070532;28;20071;-57
2023/05/10 07:10:04;;;;;;;6.03;3.30;;;;;;;13.97;48.23;100757.25;5071576;28;20020;-56
2023/05/10 07:12:30;;;;;;;6.25;3.38;;;;;;;13.98;47.95;100756.31;5072393;28;20581;-56
2023/05/10 07:14:55;;;;;;;5.18;3.78;;;;;;;14.16;48.51;100749.03;5072473;28;20040;-55
2023/05/10 07:17:21;;;;;;;7.97;3.83;;;;;;;14.26;48.25;100752.00;5071100;28;20028;-57
2023/05/10 07:19:46;;;;;;;8.27;4.10;;;;;;;14.36;47.98;100747.81;5072356;28;20036;-57
2023/05/10 07:22:12;;;;;;;9.52;3.67;;;;;;;14.33;47.22;100758.63;5072664;28;20028;-56
2023/05/10 07:24:37;;;;;;;7.68;4.00;;;;;;;14.41;47.05;100751.03;5070103;28;20037;-56
2023/05/10 07:27:02;;;;;;;7.85;3.40;;;;;;;14.55;46.88;100747.53;5071497;28;20082;-57
2023/05/10 07:29:28;;;;;;;6.57;3.45;;;;;;;14.70;46.68;100740.44;5071778;28;20024;-57
2023/05/10 07:31:53;;;;;;;7.65;3.00;;;;;;;14.70;46.75;100751.06;5071832;28;20028;-57
2023/05/10 07:34:19;;;;;;;5.90;3.55;;;;;;;14.78;46.84;100747.94;5070184;28;20035;-56
2023/05/10 07:36:44;;;;;;;7.55;3.60;;;;;;;14.77;46.75;100754.19;5071437;28;20024;-56
2023/05/10 07:39:10;;;;;;;10.18;3.88;;;;;;;14.83;46.40;100752.00;5071627;28;20027;-58
2023/05/10 07:41:37;;;;;;;12.55;3.83;;;;;;;14.85;46.62;100751.91;5067864;28;20441;-56
2023/05/10 07:44:03;;;;;;;9.18;3.83;;;;;;;14.95;46.90;100749.50;5069613;28;20056;-56
2023/05/10 07:46:29;;;;;;;8.27;4.15;;;;;;;15.20;46.45;100752.31;5071813;28;20101;-56
2023/05/10 07:48:54;;;;;;;6.63;3.67;;;;;;;15.36;45.41;100759.28;5072100;28;20028;-56
2023/05/10 07:51:19;;;;;;;9.05;4.35;;;;;;;15.46;45.47;100765.69;5071389;28;20060;-56
2023/05/10 07:53:45;;;;;;;8.52;3.30;;;;;;;15.58;44.49;100762.25;5070757;28;20373;-57
2023/05/10 07:56:22;;;;;;;6.80;3.78;;;;;;;15.65;44.88;100767.16;5071090;28;20128;-56
2023/05/10 07:58:47;;;;;;;5.00;3.22;;;;;;;15.66;44.92;100763.53;5071596;28;20097;-57
2023/05/10 08:01:12;;;;;;;10.18;3.75;;;;;;;15.63;44.87;100755.72;5068287;28;20036;-56
2023/05/10 08:03:38;;;;;;;5.38;3.10;;;;;;;15.82;44.99;100760.72;5072489;28;20032;-58
2023/05/10 08:06:03;;;;;;;8.35;3.53;;;;;;;15.87;44.34;100759.47;5071833;28;20107;-56
2023/05/10 08:08:29;;;;;;;6.00;3.72;;;;;;;16.07;44.18;100762.56;5071935;28;20016;-57
2023/05/10 08:10:54;;;;;;;7.07;3.90;;;;;;;16.06;44.69;100763.53;5065934;28;20059;-56
2023/05/10 08:13:21;;;;;;;7.22;3.15;;;;;;;16.28;44.42;100757.56;5071793;28;20028;-56
2023/05/10 08:15:46;;;;;;;28.77;4.07;;;;;;;16.60;44.65;100762.47;5070785;28;20029;-56
2023/05/10 08:18:12;;;;;;;6.38;4.20;;;;;;;16.50;43.56;100762.25;5071836;28;20329;-56
2023/05/10 08:20:37;;;;;;;6.35;3.35;;;;;;;16.73;43.06;100773.13;5053131;28;20079;-56
2023/05/10 08:23:03;;;;;;;9.10;3.72;;;;;;;16.59;43.28;100769.63;5073318;28;20048;-56
2023/05/10 08:25:28;;;;;;;9.02;3.85;;;;;;;16.55;43.38;100764.63;5076757;28;20106;-56
2023/05/10 08:27:53;;;;;;;5.70;3.63;;;;;;;16.71;42.85;100765.22;5070095;28;20062;-56
2023/05/10 08:30:19;;;;;;;6.13;3.28;;;;;;;16.83;42.83;100769.66;5056393;28;20094;-56
2023/05/10 08:32:45;;;;;;;6.25;3.17;;;;;;;16.69;42.86;100780.50;5073043;28;20448;-56
2023/05/10 08:35:10;;;;;;;6.00;2.78;;;;;;;16.66;43.68;100773.56;5074344;28;20039;-56
2023/05/10 08:37:35;;;;;;;6.03;3.20;;;;;;;16.90;42.65;100774.63;5072516;28;20028;-56
2023/05/10 08:40:01;;;;;;;5.53;2.95;;;;;;;16.93;42.75;100780.56;5075249;28;20043;-55
2023/05/10 08:42:30;;;;;;;6.32;3.30;;;;;;;17.19;42.39;100775.16;5073823;28;20776;-57
2023/05/10 08:44:57;;;;;;;5.72;2.65;;;;;;;17.10;42.24;100783.84;5072428;28;20123;-56
2023/05/10 08:47:22;;;;;;;7.57;3.47;;;;;;;17.01;42.18;100772.03;5071636;28;20111;-57
2023/05/10 08:49:51;;;;;;;9.52;3.25;;;;;;;16.98;42.27;100778.41;5074523;28;20083;-57
2023/05/10 08:52:17;;;;;;;10.90;3.70;;;;;;;17.15;42.29;100779.88;5074251;28;20100;-56
2023/05/10 08:54:43;;;;;;;4.90;3.00;;;;;;;17.12;41.93;100773.94;5072774;28;20100;-57
2023/05/10 08:57:10;;;;;;;5.18;2.88;;;;;;;17.42;42.31;100771.66;5073877;28;20051;-55
2023/05/10 08:59:39;;;;;;;4.60;2.97;;;;;;;17.56;41.71;100772.47;5074367;28;20033;-55
2023/05/10 09:02:04;;;;;;;5.53;3.20;;;;;;;17.45;41.40;100775.06;5074468;28;20056;-55
2023/05/10 09:04:30;;;;;;;9.00;3.45;;;;;;;17.45;41.55;100764.38;5072145;28;20452;-57
2023/05/10 09:06:56;;;;;;;7.40;3.67;;;;;;;17.59;41.70;100766.88;5073337;28;20601;-56
2023/05/10 09:09:25;;;;;;;13.45;3.10;;;;;;;17.61;41.74;100771.13;5074254;28;20032;-57
2023/05/10 09:11:52;;;;;;;5.28;3.30;;;;;;;17.75;40.87;100771.91;5073618;28;20127;-56
2023/05/10 09:14:19;;;;;;;8.55;3.42;;;;;;;17.95;41.19;100773.13;5058619;28;20048;-57
2023/05/10 09:16:44;;;;;;;9.13;3.88;;;;;;;17.88;40.83;100775.38;5063151;28;20021;-56
2023/05/10 09:19:10;;;;;;;9.60;3.15;;;;;;;18.08;41.16;100784.59;5073992;28;20346;-56
2023/05/10 09:21:39;;;;;;;7.32;3.53;;;;;;;18.07;40.73;100779.34;5071590;28;20111;-57
2023/05/10 09:24:06;;;;;;;6.18;3.17;;;;;;;18.15;40.27;100785.81;5073822;28;20048;-56
2023/05/10 09:26:32;;;;;;;4.75;2.67;;;;;;;18.41;40.10;100790.13;5072356;28;20165;-57
2023/05/10 09:28:59;;;;;;;8.00;2.80;;;;;;;18.37;39.99;100786.81;5073535;28;20032;-56
2023/05/10 09:31:44;;;;;;;5.72;2.58;;;;;;;18.58;39.85;100780.75;5071709;28;20085;-57
2023/05/10 09:34:10;;;;;;;7.82;3.33;;;;;;;18.69;39.89;100788.78;5073521;28;20451;-55
2023/05/10 09:36:35;;;;;;;6.45;2.88;;;;;;;18.76;39.53;100783.78;5071969;28;20025;-56
2023/05/10 09:39:00;;;;;;;3.88;2.88;;;;;;;18.72;39.51;100777.84;5073250;28;20051;-55
2023/05/10 09:41:27;;;;;;;7.93;3.70;;;;;;;19.08;39.12;100775.88;5064916;28;20054;-56
2023/05/10 09:43:56;;;;;;;6.15;3.38;;;;;;;19.29;39.09;100780.44;5073919;28;20067;-58
2023/05/10 09:46:22;;;;;;;10.77;2.88;;;;;;;19.12;39.10;100769.28;5073738;28;20459;-56
2023/05/10 09:48:48;;;;;;;5.38;3.10;;;;;;;19.35;38.34;100790.69;5068825;28;20032;-57
2023/05/10 09:51:26;;;;;;;7.18;3.47;;;;;;;19.25;37.85;100786.06;5070838;28;20032;-56
2023/05/10 09:54:12;;;;;;;6.90;2.60;;;;;;;19.55;37.54;100791.69;5073433;28;20121;-56
2023/05/10 09:56:40;;;;;;;5.82;2.63;;;;;;;19.38;37.66;100790.44;5073192;28;20028;-56
2023/05/10 09:59:06;;;;;;;5.78;2.30;;;;;;;19.34;37.72;100791.63;5072868;28;20024;-56
2023/05/10 10:01:33;;;;;;;4.40;2.15;;;;;;;19.46;37.13;100787.13;5070187;28;20055;-56
2023/05/10 10:03:58;;;;;;;4.78;2.60;;;;;;;19.53;37.24;100783.78;5072503;28;20430;-56
2023/05/10 10:06:24;;;;;;;7.95;3.03;;;;;;;19.65;36.46;100797.16;5073569;28;20043;-56
2023/05/10 10:08:51;;;;;;;3.60;2.30;;;;;;;19.82;36.15;100788.59;5054675;28;20020;-56
2023/05/10 10:11:16;;;;;;;4.28;2.65;;;;;;;20.09;36.17;100792.59;5065788;28;20074;-56
2023/05/10 10:13:42;;;;;;;7.50;2.40;;;;;;;20.17;36.28;100787.41;5073079;28;20064;-56
2023/05/10 10:16:08;;;;;;;4.85;2.42;;;;;;;20.18;36.00;100783.75;5067972;28;20040;-56
2023/05/10 10:18:38;;;;;;;9.57;2.92;;;;;;;20.22;35.88;100787.03;5052635;28;20461;-56
2023/05/10 10:21:05;;;;;;;4.55;2.50;;;;;;;20.20;35.79;100786.31;5067168;28;20024;-55
2023/05/10 10:23:31;;;;;;;8.32;2.83;;;;;;;20.18;35.57;100778.38;5072148;28;20123;-56
2023/05/10 10:25:57;;;;;;;6.63;2.30;;;;;;;20.44;35.70;100788.72;5069604;28;20166;-56
2023/05/10 10:28:49;;;;;;;7.80;2.70;;;;;;;20.47;35.69;100788.47;5072332;28;20318;-55
2023/05/10 10:31:30;;;;;;;4.43;2.67;;;;;;;20.50;35.11;100777.44;5072219;28;20039;-56
2023/05/10 10:34:25;;;;;;;3.83;1.90;;;;;;;20.45;35.29;100774.28;5058235;28;20081;-57
2023/05/10 10:36:51;;;;;;;3.60;2.00;;;;;;;20.59;35.63;100765.88;5068965;28;20097;-56
2023/05/10 10:39:18;;;;;;;5.03;2.13;;;;;;;20.74;35.60;100773.63;5072149;28;20453;-56
2023/05/10 10:41:55;;;;;;;7.60;2.28;;;;;;;20.84;34.71;100771.81;5061351;28;20024;-56
2023/05/10 10:44:26;;;;;;;4.72;2.53;;;;;;;21.27;34.62;100767.97;5068000;28;20037;-55
2023/05/10 10:47:08;;;;;;;7.55;2.80;;;;;;;21.63;34.85;100765.63;5071718;28;20329;-56
2023/05/10 10:49:42;;;;;;;6.40;2.03;;;;;;;21.97;33.36;100770.53;5071827;28;20056;-57
2023/05/10 10:52:20;;;;;;;7.70;2.60;;;;;;;23.16;31.69;100781.63;5068603;28;20025;-56
2023/05/10 10:54:58;;;;;;;4.07;1.90;;;;;;;23.51;30.41;100765.63;5062301;28;20056;-57
2023/05/10 10:57:26;;;;;;;9.13;2.80;;;;;;;24.11;30.65;100770.38;5065443;28;20017;-57
2023/05/10 11:00:12;;;;;;;8.15;2.92;;;;;;;25.07;28.63;100767.50;5065013;28;20452;-55
2023/05/10 11:02:41;;;;;;;8.05;2.65;;;;;;;24.65;28.69;100771.09;5060882;28;20040;-56
2023/05/10 11:05:28;;;;;;;4.65;2.08;;;;;;;25.17;28.01;100766.53;5054291;28;20581;-55
2023/05/10 11:07:56;;;;;;;5.40;2.60;;;;;;;25.48;27.50;100768.66;5067761;28;20032;-56
2023/05/10 11:10:22;;;;;;;11.45;3.13;;;;;;;26.68;25.68;100763.50;5070535;28;20021;-54
2023/05/10 11:13:10;;;;;;;4.68;2.70;;;;;;;27.20;24.96;100759.31;5068707;28;20388;-55
2023/05/10 11:15:38;;;;;;;4.70;2.08;;;;;;;26.18;26.62;100763.59;5072346;28;20028;-55
2023/05/10 11:18:29;;;;;;;3.67;2.22;;;;;;;26.31;26.30;100759.50;5064921;28;20032;-55
2023/05/10 11:21:00;;;;;;;3.70;2.33;;;;;;;26.79;26.02;100762.25;5058014;28;20032;-57
2023/05/10 11:23:33;;;;;;;7.15;2.53;;;;;;;26.54;26.31;100754.19;5072602;28;20110;-56
2023/05/10 11:26:01;;;;;;;3.33;2.00;;;;;;;28.22;24.72;100758.25;5066311;28;20094;-56
2023/05/10 11:28:27;;;;;;;8.27;2.35;;;;;;;27.76;24.94;100757.25;5060805;28;20311;-56